createdAt,value
2023-08-11T00:01:10.854Z,101550.00
2023-08-11T00:03:37.913Z,101548.06
2023-08-11T00:06:08.689Z,101556.44
2023-08-11T00:08:38.267Z,101545.81
2023-08-11T00:11:17.465Z,101553.22
2023-08-11T00:13:49.414Z,101548.19
2023-08-11T00:16:16.438Z,101542.13
2023-08-11T00:18:44.122Z,101537.28
2023-08-11T00:21:11.118Z,101535.25
2023-08-11T00:23:45.592Z,101541.72
2023-08-11T00:26:12.651Z,101538.16
2023-08-11T00:28:40.417Z,101534.50
2023-08-11T00:31:07.660Z,101539.16
2023-08-11T00:33:34.660Z,101548.16
2023-08-11T00:36:01.508Z,101548.16
2023-08-11T00:38:42.879Z,101545.47
2023-08-11T00:41:12.475Z,101554.28
2023-08-11T00:43:40.472Z,101542.34
2023-08-11T00:46:12.389Z,101536.84
2023-08-11T00:48:40.381Z,101547.84
2023-08-11T00:51:08.837Z,101543.50
2023-08-11T00:53:36.339Z,101538.56
2023-08-11T00:56:04.547Z,101540.53
2023-08-11T00:58:35.164Z,101540.31
2023-08-11T01:01:02.203Z,101545.91
2023-08-11T01:03:32.127Z,101539.13
2023-08-11T01:06:17.827Z,101543.31
2023-08-11T01:09:07.303Z,101532.88
2023-08-11T01:11:48.550Z,101537.38
2023-08-11T01:14:24.393Z,101542.44
2023-08-11T01:16:53.180Z,101546.94
2023-08-11T01:19:29.810Z,101537.28
2023-08-11T01:22:01.031Z,101541.25
2023-08-11T01:24:29.690Z,101535.19
2023-08-11T01:26:58.850Z,101542.19
2023-08-11T01:29:26.904Z,101545.75
2023-08-11T01:31:54.388Z,101546.06
2023-08-11T01:34:29.464Z,101554.91
2023-08-11T01:37:01.635Z,101561.47
2023-08-11T01:39:29.908Z,101560.38
2023-08-11T01:41:57.512Z,101559.41
2023-08-11T01:44:26.612Z,101565.75
2023-08-11T01:46:57.014Z,101564.84
2023-08-11T01:49:26.383Z,101557.34
2023-08-11T01:51:58.554Z,101556.03
2023-08-11T01:54:25.994Z,101556.13
2023-08-11T01:56:53.436Z,101561.81
2023-08-11T01:59:23.925Z,101562.00
2023-08-11T02:02:03.079Z,101562.59
2023-08-11T02:04:30.110Z,101561.09
2023-08-11T02:06:57.130Z,101559.19
2023-08-11T02:09:24.158Z,101562.41
2023-08-11T02:11:51.104Z,101563.38
2023-08-11T02:14:18.980Z,101560.03
2023-08-11T02:16:45.955Z,101567.13
2023-08-11T02:19:17.278Z,101562.81
2023-08-11T02:21:44.318Z,101563.28
2023-08-11T02:24:11.299Z,101558.97
2023-08-11T02:26:38.794Z,101561.31
2023-08-11T02:29:07.184Z,101565.88
2023-08-11T02:31:38.757Z,101572.03
2023-08-11T02:34:06.361Z,101565.91
2023-08-11T02:36:33.320Z,101562.16
2023-08-11T02:39:00.356Z,101564.88
2023-08-11T02:41:27.473Z,101567.63
2023-08-11T02:43:54.583Z,101563.03
2023-08-11T02:46:21.781Z,101555.34
2023-08-11T02:48:51.671Z,101559.97
2023-08-11T02:51:19.882Z,101565.63
2023-08-11T02:53:46.858Z,101567.47
2023-08-11T02:56:16.823Z,101569.47
2023-08-11T02:58:44.033Z,101568.97
2023-08-11T03:01:11.806Z,101573.22
2023-08-11T03:03:39.497Z,101568.41
2023-08-11T03:06:06.484Z,101567.25
2023-08-11T03:08:35.075Z,101565.91
2023-08-11T03:11:01.925Z,101575.31
2023-08-11T03:13:30.523Z,101576.47
2023-08-11T03:15:57.739Z,101573.41
2023-08-11T03:18:26.505Z,101567.09
2023-08-11T03:21:06.259Z,101572.66
2023-08-11T03:23:41.178Z,101580.31
2023-08-11T03:26:08.248Z,101579.19
2023-08-11T03:28:35.136Z,101588.16
2023-08-11T03:31:02.162Z,101589.13
2023-08-11T03:33:29.092Z,101590.38
2023-08-11T03:36:05.310Z,101602.84
2023-08-11T03:38:32.272Z,101594.91
2023-08-11T03:40:59.323Z,101595.09
2023-08-11T03:43:26.428Z,101598.91
2023-08-11T03:45:53.693Z,101596.22
2023-08-11T03:48:20.790Z,101601.97
2023-08-11T03:50:47.988Z,101607.91
2023-08-11T03:53:18.412Z,101615.00
2023-08-11T03:55:48.070Z,101612.63
2023-08-11T03:58:20.876Z,101614.94
2023-08-11T04:00:48.085Z,101609.09
2023-08-11T04:03:16.579Z,101617.13
2023-08-11T04:05:47.669Z,101619.22
2023-08-11T04:08:14.572Z,101620.94
2023-08-11T04:10:44.573Z,101613.59
2023-08-11T04:13:11.714Z,101611.97
2023-08-11T04:15:40.988Z,101618.19
2023-08-11T04:18:14.282Z,101620.09
2023-08-11T04:20:41.530Z,101622.88
2023-08-11T04:23:10.113Z,101618.25
2023-08-11T04:25:37.130Z,101626.50
2023-08-11T04:28:04.754Z,101618.38
2023-08-11T04:30:32.052Z,101627.28
2023-08-11T04:32:59.739Z,101624.78
2023-08-11T04:35:27.138Z,101628.72
2023-08-11T04:37:54.093Z,101634.31
2023-08-11T04:40:23.602Z,101640.78
2023-08-11T04:42:50.555Z,101641.16
2023-08-11T04:45:17.408Z,101633.81
2023-08-11T04:47:44.535Z,101635.88
2023-08-11T04:50:13.437Z,101643.97
2023-08-11T04:52:47.310Z,101639.09
2023-08-11T04:55:14.706Z,101640.13
2023-08-11T04:57:41.625Z,101640.88
2023-08-11T05:00:15.236Z,101643.75
2023-08-11T05:02:43.408Z,101640.97
2023-08-11T05:05:10.868Z,101644.41
2023-08-11T05:07:39.341Z,101643.75
2023-08-11T05:10:07.035Z,101642.78
2023-08-11T05:12:34.782Z,101653.50
2023-08-11T05:15:09.752Z,101651.88
2023-08-11T05:17:44.282Z,101642.91
2023-08-11T05:20:19.084Z,101651.44
2023-08-11T05:22:46.089Z,101655.75
2023-08-11T05:25:13.265Z,101656.53
2023-08-11T05:27:43.797Z,101661.91
2023-08-11T05:30:11.019Z,101667.81
2023-08-11T05:32:38.288Z,101666.41
2023-08-11T05:35:05.818Z,101667.19
2023-08-11T05:37:34.098Z,101668.69
2023-08-11T05:40:15.885Z,101665.81
2023-08-11T05:42:47.723Z,101672.75
2023-08-11T05:45:18.089Z,101677.63
2023-08-11T05:47:45.379Z,101677.44
2023-08-11T05:50:12.589Z,101682.19
2023-08-11T05:52:39.622Z,101680.53
2023-08-11T05:55:08.758Z,101682.25
2023-08-11T05:57:47.258Z,101689.84
2023-08-11T06:00:22.646Z,101683.50
2023-08-11T06:02:56.259Z,101683.22
2023-08-11T06:05:25.261Z,101692.44
2023-08-11T06:08:05.143Z,101694.53
2023-08-11T06:10:34.028Z,101698.09
2023-08-11T06:13:01.352Z,101696.34
2023-08-11T06:15:28.380Z,101696.53
2023-08-11T06:17:55.907Z,101698.88
2023-08-11T06:20:38.609Z,101698.34
2023-08-11T06:23:09.226Z,101702.09
2023-08-11T06:25:36.260Z,101698.72
2023-08-11T06:28:03.485Z,101708.69
2023-08-11T06:30:35.210Z,101703.03
2023-08-11T06:33:10.659Z,101701.59
2023-08-11T06:35:41.266Z,101715.13
2023-08-11T06:38:11.756Z,101712.34
2023-08-11T06:40:40.444Z,101705.72
2023-08-11T06:43:10.787Z,101710.88
2023-08-11T06:45:37.978Z,101711.97
2023-08-11T06:48:05.439Z,101711.78
2023-08-11T06:50:33.230Z,101715.53
2023-08-11T06:53:00.711Z,101720.28
2023-08-11T06:55:27.990Z,101721.63
2023-08-11T06:57:59.853Z,101723.69
2023-08-11T07:00:27.235Z,101724.34
2023-08-11T07:02:54.581Z,101719.41
2023-08-11T07:05:24.680Z,101728.72
2023-08-11T07:07:53.031Z,101732.19
2023-08-11T07:10:19.895Z,101729.06
2023-08-11T07:12:46.978Z,101731.34
2023-08-11T07:15:14.005Z,101734.47
2023-08-11T07:17:41.120Z,101733.38
2023-08-11T07:20:08.517Z,101735.22
2023-08-11T07:22:36.232Z,101744.28
2023-08-11T07:25:05.731Z,101742.91
2023-08-11T07:27:32.786Z,101743.84
2023-08-11T07:30:00.257Z,101746.69
2023-08-11T07:32:28.309Z,101734.69
2023-08-11T07:34:55.612Z,101737.84
2023-08-11T07:37:22.914Z,101741.97
2023-08-11T07:39:49.951Z,101738.69
2023-08-11T07:42:16.938Z,101750.66
2023-08-11T07:44:47.308Z,101738.09
2023-08-11T07:47:14.220Z,101740.88
2023-08-11T07:49:44.160Z,101735.50
2023-08-11T07:52:23.543Z,101744.66
2023-08-11T07:54:53.054Z,101744.00
2023-08-11T07:57:21.302Z,101738.91
2023-08-11T07:59:48.430Z,101738.47
2023-08-11T08:02:16.950Z,101741.69
2023-08-11T08:04:46.419Z,101739.50
2023-08-11T08:07:13.535Z,101747.50
2023-08-11T08:09:40.565Z,101744.25
2023-08-11T08:12:17.328Z,101748.53
2023-08-11T08:14:44.768Z,101745.13
2023-08-11T08:17:11.868Z,101748.31
2023-08-11T08:19:42.600Z,101746.94
2023-08-11T08:22:10.722Z,101748.53
2023-08-11T08:24:37.942Z,101751.00
2023-08-11T08:27:05.120Z,101755.66
2023-08-11T08:29:35.643Z,101757.28
2023-08-11T08:32:02.532Z,101751.25
2023-08-11T08:34:29.402Z,101765.16
2023-08-11T08:36:57.334Z,101759.06
2023-08-11T08:39:24.258Z,101761.75
2023-08-11T08:41:53.880Z,101754.53
2023-08-11T08:44:21.648Z,101758.59
2023-08-11T08:46:51.607Z,101757.53
2023-08-11T08:49:26.783Z,101757.69
2023-08-11T08:51:55.868Z,101754.13
2023-08-11T08:54:22.797Z,101761.38
2023-08-11T08:56:51.162Z,101759.94
2023-08-11T08:59:18.118Z,101750.63
2023-08-11T09:01:45.718Z,101753.63
2023-08-11T09:04:13.351Z,101755.66
2023-08-11T09:06:40.881Z,101755.28
2023-08-11T09:09:10.096Z,101753.47
2023-08-11T09:11:39.591Z,101747.69
2023-08-11T09:14:08.419Z,101749.41
2023-08-11T09:16:36.449Z,101757.16
2023-08-11T09:19:10.603Z,101752.28
2023-08-11T09:21:37.882Z,101745.31
2023-08-11T09:24:05.981Z,101756.25
2023-08-11T09:26:33.910Z,101743.25
2023-08-11T09:29:01.116Z,101751.22
2023-08-11T09:31:29.943Z,101752.06
2023-08-11T09:33:58.032Z,101746.22
2023-08-11T09:36:35.258Z,101751.16
2023-08-11T09:39:11.455Z,101746.88
2023-08-11T09:41:42.470Z,101750.69
2023-08-11T09:44:12.702Z,101743.69
2023-08-11T09:46:40.744Z,101742.44
2023-08-11T09:49:08.861Z,101739.13
2023-08-11T09:51:37.517Z,101744.66
2023-08-11T09:54:07.909Z,101739.34
2023-08-11T09:56:43.721Z,101732.00
2023-08-11T09:59:20.090Z,101735.38
2023-08-11T10:01:49.958Z,101731.66
2023-08-11T10:04:39.937Z,101726.53
2023-08-11T10:07:14.711Z,101730.47
2023-08-11T10:09:45.461Z,101721.28
2023-08-11T10:12:14.391Z,101726.28
2023-08-11T10:14:43.075Z,101728.47
2023-08-11T10:17:11.879Z,101728.75
2023-08-11T10:19:42.377Z,101725.81
2023-08-11T10:22:13.463Z,101728.19
2023-08-11T10:24:42.387Z,101726.81
2023-08-11T10:27:09.743Z,101736.72
2023-08-11T10:29:39.883Z,101735.91
2023-08-11T10:32:14.551Z,101739.19
2023-08-11T10:34:41.548Z,101738.69
2023-08-11T10:37:09.431Z,101735.28
2023-08-11T10:39:38.836Z,101723.28
2023-08-11T10:42:07.262Z,101729.28
2023-08-11T10:44:34.989Z,101729.25
2023-08-11T10:47:04.345Z,101728.69
2023-08-11T10:49:36.027Z,101731.25
2023-08-11T10:52:13.926Z,101721.91
2023-08-11T10:54:50.266Z,101730.47
2023-08-11T10:57:17.588Z,101721.16
2023-08-11T10:59:44.739Z,101727.13
2023-08-11T11:02:13.826Z,101731.91
2023-08-11T11:04:47.830Z,101726.28
2023-08-11T11:07:16.130Z,101722.84
2023-08-11T11:09:43.950Z,101717.94
2023-08-11T11:12:11.845Z,101722.38
2023-08-11T11:14:39.305Z,101716.28
2023-08-11T11:17:07.718Z,101715.75
2023-08-11T11:19:34.941Z,101725.41
2023-08-11T11:22:01.996Z,101722.34
2023-08-11T11:24:28.927Z,101709.31
2023-08-11T11:26:57.787Z,101717.72
2023-08-11T11:29:29.954Z,101719.25
2023-08-11T11:31:58.139Z,101716.91
2023-08-11T11:34:25.381Z,101713.38
2023-08-11T11:36:52.612Z,101720.78
2023-08-11T11:39:20.181Z,101702.41
2023-08-11T11:41:47.187Z,101713.75
2023-08-11T11:44:14.585Z,101704.06
2023-08-11T11:46:41.818Z,101706.16
2023-08-11T11:49:19.571Z,101704.50
2023-08-11T11:51:56.141Z,101711.16
2023-08-11T11:54:27.140Z,101709.31
2023-08-11T11:57:04.315Z,101713.09
2023-08-11T11:59:37.100Z,101711.59
2023-08-11T12:02:05.481Z,101702.56
2023-08-11T12:04:32.936Z,101710.06
2023-08-11T12:07:00.003Z,101705.59
2023-08-11T12:09:27.007Z,101697.91
2023-08-11T12:11:57.834Z,101697.75
2023-08-11T12:14:35.430Z,101699.63
2023-08-11T12:17:02.381Z,101696.88
2023-08-11T12:19:30.090Z,101699.59
2023-08-11T12:21:59.755Z,101697.88
2023-08-11T12:24:34.809Z,101697.47
2023-08-11T12:27:01.688Z,101694.38
2023-08-11T12:29:28.878Z,101685.91
2023-08-11T12:32:00.526Z,101695.13
2023-08-11T12:34:28.470Z,101692.59
2023-08-11T12:36:59.088Z,101684.72
2023-08-11T12:39:29.473Z,101686.13
2023-08-11T12:41:56.803Z,101681.38
2023-08-11T12:44:26.046Z,101681.25
2023-08-11T12:46:53.653Z,101667.47
2023-08-11T12:49:23.278Z,101674.94
2023-08-11T12:51:52.661Z,101677.56
2023-08-11T12:54:20.115Z,101679.28
2023-08-11T12:56:51.959Z,101669.44
2023-08-11T12:59:18.962Z,101669.84
2023-08-11T13:01:46.194Z,101677.41
2023-08-11T13:04:13.601Z,101666.38
2023-08-11T13:06:41.192Z,101662.28
2023-08-11T13:09:13.155Z,101658.09
2023-08-11T13:11:40.009Z,101649.56
2023-08-11T13:14:08.000Z,101649.56
2023-08-11T13:16:36.999Z,101657.44
2023-08-11T13:19:04.802Z,101657.63
2023-08-11T13:21:32.492Z,101654.31
2023-08-11T13:24:00.913Z,101649.78
2023-08-11T13:26:28.322Z,101644.94
2023-08-11T13:28:58.512Z,101645.91
2023-08-11T13:31:26.512Z,101650.16
2023-08-11T13:33:53.464Z,101645.13
2023-08-11T13:36:28.450Z,101650.28
2023-08-11T13:38:57.981Z,101631.75
2023-08-11T13:41:25.095Z,101636.63
2023-08-11T13:43:56.405Z,101628.81
2023-08-11T13:46:28.916Z,101621.31
2023-08-11T13:49:00.528Z,101633.50
2023-08-11T13:51:28.441Z,101629.22
2023-08-11T13:53:55.460Z,101626.66
2023-08-11T13:56:22.828Z,101624.84
2023-08-11T13:58:49.971Z,101626.63
2023-08-11T14:01:17.118Z,101624.06
2023-08-11T14:03:50.301Z,101619.84
2023-08-11T14:06:17.398Z,101620.34
2023-08-11T14:08:47.305Z,101615.94
2023-08-11T14:11:23.411Z,101619.50
2023-08-11T14:14:02.737Z,101616.28
2023-08-11T14:16:35.294Z,101623.97
2023-08-11T14:19:02.596Z,101614.22
2023-08-11T14:21:29.900Z,101608.19
2023-08-11T14:23:57.023Z,101613.81
2023-08-11T14:26:23.944Z,101609.38
2023-08-11T14:28:51.780Z,101612.09
2023-08-11T14:31:18.732Z,101615.84
2023-08-11T14:33:45.865Z,101616.50
2023-08-11T14:36:14.079Z,101608.31
2023-08-11T14:38:42.110Z,101603.81
2023-08-11T14:41:09.868Z,101600.41
2023-08-11T14:43:36.756Z,101611.97
2023-08-11T14:46:03.975Z,101603.06
2023-08-11T14:48:31.123Z,101608.19
2023-08-11T14:51:03.834Z,101615.31
2023-08-11T14:53:31.501Z,101614.91
2023-08-11T14:55:59.958Z,101612.69
2023-08-11T14:58:26.897Z,101619.97
2023-08-11T15:00:54.612Z,101615.81
2023-08-11T15:03:22.494Z,101616.00
2023-08-11T15:05:49.592Z,101619.66
2023-08-11T15:08:16.678Z,101625.09
2023-08-11T15:10:43.769Z,101624.81
2023-08-11T15:13:10.784Z,101614.53
2023-08-11T15:15:42.404Z,101613.19
2023-08-11T15:18:09.632Z,101612.63
2023-08-11T15:20:45.367Z,101617.78
2023-08-11T15:23:12.955Z,101624.44
2023-08-11T15:25:42.555Z,101621.63
2023-08-11T15:28:19.602Z,101626.22
2023-08-11T15:30:48.577Z,101625.00
2023-08-11T15:33:20.790Z,101617.16
2023-08-11T15:35:47.916Z,101604.91
2023-08-11T15:38:18.076Z,101606.38
2023-08-11T15:40:45.936Z,101596.56
2023-08-11T15:43:13.148Z,101599.00
2023-08-11T15:45:40.002Z,101600.38
2023-08-11T15:48:07.178Z,101593.56
2023-08-11T15:50:34.185Z,101592.69
2023-08-11T15:53:06.447Z,101587.75
2023-08-11T15:55:36.678Z,101590.63
2023-08-11T15:58:05.094Z,101589.81
2023-08-11T16:00:33.108Z,101605.47
2023-08-11T16:03:00.861Z,101596.22
2023-08-11T16:05:27.799Z,101594.88
2023-08-11T16:07:54.772Z,101589.53
2023-08-11T16:10:24.534Z,101593.19
2023-08-11T16:12:52.001Z,101596.56
2023-08-11T16:15:18.952Z,101587.66
2023-08-11T16:17:45.966Z,101582.69
2023-08-11T16:20:13.158Z,101580.38
2023-08-11T16:22:40.059Z,101584.25
2023-08-11T16:25:09.963Z,101586.06
2023-08-11T16:27:36.971Z,101584.59
2023-08-11T16:30:04.336Z,101586.94
2023-08-11T16:32:32.205Z,101593.94
2023-08-11T16:34:59.325Z,101585.13
2023-08-11T16:37:26.455Z,101584.59
2023-08-11T16:39:53.427Z,101597.44
2023-08-11T16:42:20.869Z,101592.63
2023-08-11T16:44:47.878Z,101584.78
2023-08-11T16:47:14.867Z,101587.88
2023-08-11T16:49:41.945Z,101582.44
2023-08-11T16:52:17.679Z,101582.84
2023-08-11T16:54:51.498Z,101583.53
2023-08-11T16:57:24.181Z,101580.38
2023-08-11T16:59:51.617Z,101576.47
2023-08-11T17:02:18.924Z,101573.78
2023-08-11T17:04:46.137Z,101574.16
2023-08-11T17:07:13.135Z,101582.75
2023-08-11T17:09:48.335Z,101578.50
2023-08-11T17:12:20.679Z,101583.41
2023-08-11T17:14:49.200Z,101584.84
2023-08-11T17:17:16.266Z,101586.63
2023-08-11T17:19:45.155Z,101590.13
2023-08-11T17:22:19.748Z,101585.69
2023-08-11T17:24:49.982Z,101590.88
2023-08-11T17:27:17.162Z,101595.38
2023-08-11T17:29:46.235Z,101594.63
2023-08-11T17:32:13.317Z,101600.97
2023-08-11T17:34:54.580Z,101604.59
2023-08-11T17:37:33.409Z,101597.91
2023-08-11T17:40:01.099Z,101600.25
2023-08-11T17:42:29.593Z,101596.69
2023-08-11T17:44:57.743Z,101596.81
2023-08-11T17:47:24.786Z,101598.97
2023-08-11T17:49:53.028Z,101603.72
2023-08-11T17:52:20.210Z,101600.00
2023-08-11T17:54:47.456Z,101609.19
2023-08-11T17:57:16.839Z,101606.91
2023-08-11T17:59:43.910Z,101616.38
2023-08-11T18:02:11.308Z,101615.66
2023-08-11T18:04:39.678Z,101611.81
2023-08-11T18:07:06.650Z,101609.22
2023-08-11T18:09:33.672Z,101620.34
2023-08-11T18:12:00.710Z,101607.78
2023-08-11T18:14:30.314Z,101615.19
2023-08-11T18:17:02.235Z,101608.50
2023-08-11T18:19:30.007Z,101612.66
2023-08-11T18:21:57.047Z,101614.91
2023-08-11T18:24:24.028Z,101620.34
2023-08-11T18:26:54.460Z,101627.47
2023-08-11T18:29:21.644Z,101633.19
2023-08-11T18:31:48.875Z,101626.56
2023-08-11T18:34:15.805Z,101625.41
2023-08-11T18:36:42.819Z,101623.69
2023-08-11T18:39:09.916Z,101630.50
2023-08-11T18:41:37.385Z,101627.94
2023-08-11T18:44:05.821Z,101636.63
2023-08-11T18:46:42.192Z,101632.59
2023-08-11T18:49:10.920Z,101635.41
2023-08-11T18:51:38.401Z,101646.78
2023-08-11T18:54:13.273Z,101650.16
2023-08-11T18:56:44.059Z,101655.59
2023-08-11T18:59:11.757Z,101654.53
2023-08-11T19:01:48.808Z,101664.22
2023-08-11T19:04:15.974Z,101662.66
2023-08-11T19:06:43.983Z,101667.19
2023-08-11T19:09:11.764Z,101673.84
2023-08-11T19:11:50.047Z,101675.50
2023-08-11T19:14:18.201Z,101672.31
2023-08-11T19:16:45.599Z,101677.66
2023-08-11T19:19:16.990Z,101671.13
2023-08-11T19:21:47.879Z,101679.41
2023-08-11T19:24:15.213Z,101675.25
2023-08-11T19:26:42.113Z,101684.88
2023-08-11T19:29:14.630Z,101685.28
2023-08-11T19:31:41.650Z,101700.03
2023-08-11T19:34:13.197Z,101704.25
2023-08-11T19:36:42.730Z,101705.25
2023-08-11T19:39:14.976Z,101702.16
2023-08-11T19:41:42.394Z,101706.63
2023-08-11T19:44:09.470Z,101706.88
2023-08-11T19:46:36.470Z,101699.63
2023-08-11T19:49:06.710Z,101700.25
2023-08-11T19:51:33.733Z,101703.84
2023-08-11T19:54:01.222Z,101701.13
2023-08-11T19:56:30.420Z,101708.97
2023-08-11T19:58:57.650Z,101703.69
2023-08-11T20:01:24.835Z,101698.06
2023-08-11T20:03:52.203Z,101698.69
2023-08-11T20:06:19.265Z,101698.78
2023-08-11T20:08:47.012Z,101710.09
2023-08-11T20:11:20.260Z,101706.31
2023-08-11T20:13:47.349Z,101702.00
2023-08-11T20:16:14.990Z,101708.53
2023-08-11T20:18:42.078Z,101696.84
2023-08-11T20:21:09.340Z,101688.97
2023-08-11T20:23:36.526Z,101695.97
2023-08-11T20:26:03.568Z,101691.06
2023-08-11T20:28:31.350Z,101693.16
2023-08-11T20:31:02.788Z,101697.81
2023-08-11T20:33:29.855Z,101698.66
2023-08-11T20:36:02.901Z,101698.66
2023-08-11T20:38:39.476Z,101696.81
2023-08-11T20:41:07.383Z,101702.31
2023-08-11T20:43:42.374Z,101697.56
2023-08-11T20:46:09.454Z,101700.75
2023-08-11T20:48:38.961Z,101704.78
2023-08-11T20:51:15.325Z,101715.69
2023-08-11T20:53:42.353Z,101701.22
2023-08-11T20:56:19.469Z,101706.34
2023-08-11T20:58:55.189Z,101708.44
2023-08-11T21:01:22.606Z,101715.19
2023-08-11T21:03:53.938Z,101712.72
2023-08-11T21:06:27.769Z,101718.38
2023-08-11T21:09:01.106Z,101712.97
2023-08-11T21:11:28.131Z,101721.53
2023-08-11T21:13:58.199Z,101719.56
2023-08-11T21:16:25.136Z,101721.41
2023-08-11T21:18:52.566Z,101721.78
2023-08-11T21:21:19.610Z,101721.84
2023-08-11T21:23:46.546Z,101726.97
2023-08-11T21:26:13.700Z,101727.72
2023-08-11T21:28:40.909Z,101732.72
2023-08-11T21:31:17.426Z,101731.97
2023-08-11T21:33:45.603Z,101724.81
2023-08-11T21:36:15.729Z,101732.44
2023-08-11T21:38:43.611Z,101737.44
2023-08-11T21:41:12.832Z,101729.84
2023-08-11T21:43:52.666Z,101742.72
2023-08-11T21:46:31.512Z,101742.66
2023-08-11T21:49:01.920Z,101738.47
2023-08-11T21:51:28.915Z,101737.25
2023-08-11T21:54:05.051Z,101741.16
2023-08-11T21:56:32.011Z,101738.56
2023-08-11T21:58:59.256Z,101740.09
2023-08-11T22:01:26.490Z,101748.97
2023-08-11T22:03:54.302Z,101747.63
2023-08-11T22:06:21.468Z,101744.03
2023-08-11T22:08:48.643Z,101742.06
2023-08-11T22:11:33.841Z,101744.25
2023-08-11T22:14:03.021Z,101746.38
2023-08-11T22:16:30.479Z,101739.50
2023-08-11T22:18:58.468Z,101737.53
2023-08-11T22:21:25.811Z,101739.28
2023-08-11T22:23:52.849Z,101743.28
2023-08-11T22:26:23.010Z,101728.31
2023-08-11T22:28:50.215Z,101740.09
2023-08-11T22:31:17.285Z,101733.53
2023-08-11T22:33:44.417Z,101739.25
2023-08-11T22:36:11.530Z,101741.31
2023-08-11T22:38:46.891Z,101745.09
2023-08-11T22:41:13.931Z,101743.78
2023-08-11T22:43:40.876Z,101749.47
2023-08-11T22:46:10.808Z,101737.00
2023-08-11T22:48:38.146Z,101738.31
2023-08-11T22:51:06.940Z,101738.72
2023-08-11T22:53:37.274Z,101727.63
2023-08-11T22:56:04.482Z,101731.28
2023-08-11T22:58:31.899Z,101728.06
2023-08-11T23:00:59.015Z,101737.88
2023-08-11T23:03:27.384Z,101728.38
2023-08-11T23:05:54.408Z,101738.69
2023-08-11T23:08:23.995Z,101730.94
2023-08-11T23:10:51.791Z,101730.94
2023-08-11T23:13:26.589Z,101732.34
2023-08-11T23:15:57.809Z,101737.19
2023-08-11T23:18:24.746Z,101729.53
2023-08-11T23:20:56.323Z,101734.47
2023-08-11T23:23:23.415Z,101733.38
2023-08-11T23:25:57.001Z,101741.38
2023-08-11T23:28:25.469Z,101735.44
2023-08-11T23:30:52.677Z,101737.25
2023-08-11T23:33:20.087Z,101743.31
2023-08-11T23:35:47.315Z,101734.25
2023-08-11T23:38:14.273Z,101727.81
2023-08-11T23:40:41.280Z,101726.97
2023-08-11T23:43:08.338Z,101726.31
2023-08-11T23:45:36.137Z,101721.59
2023-08-11T23:48:11.807Z,101718.53
2023-08-11T23:50:47.230Z,101726.28
2023-08-11T23:53:23.924Z,101731.97
2023-08-11T23:55:59.285Z,101731.56
2023-08-11T23:58:26.574Z,101731.00
